sensor_id;sensor_type;location;lat;lon;timestamp;P1;durP1;ratioP1;P2;durP2;ratioP2
14736;SDS011;7459;53.590;10.062;2022-08-19T00:01:41;21.25;;;12.02;;
14736;SDS011;7459;53.590;10.062;2022-08-19T00:04:10;22.70;;;12.00;;
14736;SDS011;7459;53.590;10.062;2022-08-19T00:06:39;19.63;;;11.68;;
14736;SDS011;7459;53.590;10.062;2022-08-19T00:09:08;24.10;;;13.50;;
14736;SDS011;7459;53.590;10.062;2022-08-19T00:11:36;25.00;;;13.70;;
14736;SDS011;7459;53.590;10.062;2022-08-19T00:14:03;25.88;;;13.70;;
14736;SDS011;7459;53.590;10.062;2022-08-19T00:16:34;30.15;;;13.95;;
14736;SDS011;7459;53.590;10.062;2022-08-19T00:19:02;25.35;;;13.55;;
14736;SDS011;7459;53.590;10.062;2022-08-19T00:21:28;23.63;;;13.27;;
14736;SDS011;7459;53.590;10.062;2022-08-19T00:23:55;23.10;;;13.57;;
14736;SDS011;7459;53.590;10.062;2022-08-19T00:26:25;27.42;;;14.00;;
14736;SDS011;7459;53.590;10.062;2022-08-19T00:28:52;25.30;;;12.70;;
14736;SDS011;7459;53.590;10.062;2022-08-19T00:31:18;24.40;;;12.53;;
14736;SDS011;7459;53.590;10.062;2022-08-19T00:33:43;23.20;;;12.88;;
14736;SDS011;7459;53.590;10.062;2022-08-19T00:36:09;23.63;;;13.17;;
14736;SDS011;7459;53.590;10.062;2022-08-19T00:38:36;24.30;;;12.43;;
14736;SDS011;7459;53.590;10.062;2022-08-19T00:41:07;22.90;;;13.65;;
14736;SDS011;7459;53.590;10.062;2022-08-19T00:43:38;20.98;;;12.32;;
14736;SDS011;7459;53.590;10.062;2022-08-19T00:46:05;22.98;;;12.60;;
14736;SDS011;7459;53.590;10.062;2022-08-19T00:48:31;23.43;;;13.57;;
14736;SDS011;7459;53.590;10.062;2022-08-19T00:50:58;27.63;;;13.73;;
14736;SDS011;7459;53.590;10.062;2022-08-19T00:53:26;24.15;;;13.38;;
14736;SDS011;7459;53.590;10.062;2022-08-19T00:55:55;25.25;;;14.13;;
14736;SDS011;7459;53.590;10.062;2022-08-19T00:58:28;25.13;;;13.23;;
14736;SDS011;7459;53.590;10.062;2022-08-19T01:00:56;28.10;;;14.35;;
14736;SDS011;7459;53.590;10.062;2022-08-19T01:03:23;22.70;;;13.13;;
14736;SDS011;7459;53.590;10.062;2022-08-19T01:05:49;24.65;;;12.77;;
14736;SDS011;7459;53.590;10.062;2022-08-19T01:08:17;24.67;;;12.73;;
14736;SDS011;7459;53.590;10.062;2022-08-19T01:10:52;21.85;;;12.88;;
14736;SDS011;7459;53.590;10.062;2022-08-19T01:13:21;25.50;;;13.00;;
14736;SDS011;7459;53.590;10.062;2022-08-19T01:15:53;23.67;;;12.20;;
14736;SDS011;7459;53.590;10.062;2022-08-19T01:18:23;23.83;;;12.20;;
14736;SDS011;7459;53.590;10.062;2022-08-19T01:20:50;22.50;;;12.97;;
14736;SDS011;7459;53.590;10.062;2022-08-19T01:23:19;19.88;;;11.65;;
14736;SDS011;7459;53.590;10.062;2022-08-19T01:25:47;28.13;;;12.60;;
14736;SDS011;7459;53.590;10.062;2022-08-19T01:28:17;24.13;;;12.73;;
14736;SDS011;7459;53.590;10.062;2022-08-19T01:30:51;24.40;;;12.93;;
14736;SDS011;7459;53.590;10.062;2022-08-19T01:33:18;24.45;;;13.68;;
14736;SDS011;7459;53.590;10.062;2022-08-19T01:35:45;24.00;;;12.93;;
14736;SDS011;7459;53.590;10.062;2022-08-19T01:38:19;24.98;;;13.80;;
14736;SDS011;7459;53.590;10.062;2022-08-19T01:40:49;23.95;;;12.63;;
14736;SDS011;7459;53.590;10.062;2022-08-19T01:43:15;26.13;;;12.97;;
14736;SDS011;7459;53.590;10.062;2022-08-19T01:45:41;22.10;;;12.45;;
14736;SDS011;7459;53.590;10.062;2022-08-19T01:48:07;25.17;;;13.38;;
14736;SDS011;7459;53.590;10.062;2022-08-19T01:50:34;23.77;;;13.13;;
14736;SDS011;7459;53.590;10.062;2022-08-19T01:53:02;23.63;;;12.07;;
14736;SDS011;7459;53.590;10.062;2022-08-19T01:55:31;25.52;;;13.25;;
14736;SDS011;7459;53.590;10.062;2022-08-19T01:57:58;25.67;;;13.85;;
14736;SDS011;7459;53.590;10.062;2022-08-19T02:00:28;26.20;;;13.77;;
14736;SDS011;7459;53.590;10.062;2022-08-19T02:02:56;30.87;;;14.67;;
14736;SDS011;7459;53.590;10.062;2022-08-19T02:05:22;31.75;;;15.43;;
14736;SDS011;7459;53.590;10.062;2022-08-19T02:07:48;28.25;;;15.15;;
14736;SDS011;7459;53.590;10.062;2022-08-19T02:10:17;35.95;;;14.27;;
14736;SDS011;7459;53.590;10.062;2022-08-19T02:12:46;30.47;;;14.20;;
14736;SDS011;7459;53.590;10.062;2022-08-19T02:15:14;31.55;;;14.95;;
14736;SDS011;7459;53.590;10.062;2022-08-19T02:17:40;29.05;;;14.07;;
14736;SDS011;7459;53.590;10.062;2022-08-19T02:20:06;28.38;;;13.38;;
14736;SDS011;7459;53.590;10.062;2022-08-19T02:22:33;28.45;;;14.20;;
14736;SDS011;7459;53.590;10.062;2022-08-19T02:25:00;28.00;;;13.23;;
14736;SDS011;7459;53.590;10.062;2022-08-19T02:27:27;28.52;;;13.73;;
14736;SDS011;7459;53.590;10.062;2022-08-19T02:29:53;28.35;;;13.32;;
14736;SDS011;7459;53.590;10.062;2022-08-19T02:32:18;27.25;;;13.60;;
14736;SDS011;7459;53.590;10.062;2022-08-19T02:34:45;26.30;;;13.93;;
14736;SDS011;7459;53.590;10.062;2022-08-19T02:37:11;28.88;;;14.65;;
14736;SDS011;7459;53.590;10.062;2022-08-19T02:39:55;29.85;;;13.43;;
14736;SDS011;7459;53.590;10.062;2022-08-19T02:42:22;27.95;;;13.82;;
14736;SDS011;7459;53.590;10.062;2022-08-19T02:44:47;28.23;;;12.80;;
14736;SDS011;7459;53.590;10.062;2022-08-19T02:47:13;32.80;;;13.90;;
14736;SDS011;7459;53.590;10.062;2022-08-19T02:49:40;30.80;;;15.00;;
14736;SDS011;7459;53.590;10.062;2022-08-19T02:52:06;34.92;;;13.98;;
14736;SDS011;7459;53.590;10.062;2022-08-19T02:54:32;36.87;;;14.60;;
14736;SDS011;7459;53.590;10.062;2022-08-19T02:56:58;36.47;;;15.75;;
14736;SDS011;7459;53.590;10.062;2022-08-19T02:59:23;38.58;;;16.05;;
14736;SDS011;7459;53.590;10.062;2022-08-19T03:01:51;37.63;;;15.32;;
14736;SDS011;7459;53.590;10.062;2022-08-19T03:04:17;35.97;;;15.73;;
14736;SDS011;7459;53.590;10.062;2022-08-19T03:06:45;35.75;;;15.38;;
14736;SDS011;7459;53.590;10.062;2022-08-19T03:09:12;37.00;;;15.85;;
14736;SDS011;7459;53.590;10.062;2022-08-19T03:11:39;34.43;;;15.13;;
14736;SDS011;7459;53.590;10.062;2022-08-19T03:14:05;33.88;;;15.27;;
14736;SDS011;7459;53.590;10.062;2022-08-19T03:16:34;38.10;;;15.50;;
14736;SDS011;7459;53.590;10.062;2022-08-19T03:19:08;34.88;;;15.15;;
14736;SDS011;7459;53.590;10.062;2022-08-19T03:21:34;38.00;;;15.10;;
14736;SDS011;7459;53.590;10.062;2022-08-19T03:24:04;34.08;;;14.55;;
14736;SDS011;7459;53.590;10.062;2022-08-19T03:26:33;31.80;;;14.63;;
14736;SDS011;7459;53.590;10.062;2022-08-19T03:29:04;31.50;;;13.85;;
14736;SDS011;7459;53.590;10.062;2022-08-19T03:31:30;30.05;;;13.13;;
14736;SDS011;7459;53.590;10.062;2022-08-19T03:33:57;29.23;;;13.97;;
14736;SDS011;7459;53.590;10.062;2022-08-19T03:36:23;30.95;;;13.23;;
14736;SDS011;7459;53.590;10.062;2022-08-19T03:38:53;33.20;;;15.23;;
14736;SDS011;7459;53.590;10.062;2022-08-19T03:41:24;29.40;;;13.47;;
14736;SDS011;7459;53.590;10.062;2022-08-19T03:43:56;32.33;;;14.05;;
14736;SDS011;7459;53.590;10.062;2022-08-19T03:46:23;34.13;;;14.50;;
14736;SDS011;7459;53.590;10.062;2022-08-19T03:48:56;35.45;;;13.15;;
14736;SDS011;7459;53.590;10.062;2022-08-19T03:51:32;35.97;;;13.98;;
14736;SDS011;7459;53.590;10.062;2022-08-19T03:54:04;36.77;;;15.50;;
14736;SDS011;7459;53.590;10.062;2022-08-19T03:56:36;35.75;;;14.27;;
14736;SDS011;7459;53.590;10.062;2022-08-19T03:59:04;33.60;;;14.73;;
14736;SDS011;7459;53.590;10.062;2022-08-19T04:01:32;32.33;;;14.50;;
14736;SDS011;7459;53.590;10.062;2022-08-19T04:04:00;30.48;;;13.18;;
14736;SDS011;7459;53.590;10.062;2022-08-19T04:06:28;30.33;;;14.23;;
14736;SDS011;7459;53.590;10.062;2022-08-19T04:08:57;29.10;;;14.13;;
14736;SDS011;7459;53.590;10.062;2022-08-19T04:11:28;32.72;;;14.25;;
14736;SDS011;7459;53.590;10.062;2022-08-19T04:14:07;29.85;;;13.85;;
14736;SDS011;7459;53.590;10.062;2022-08-19T04:16:39;27.23;;;12.88;;
14736;SDS011;7459;53.590;10.062;2022-08-19T04:19:05;29.07;;;13.30;;
14736;SDS011;7459;53.590;10.062;2022-08-19T04:21:31;32.33;;;13.63;;
14736;SDS011;7459;53.590;10.062;2022-08-19T04:23:58;29.33;;;14.30;;
14736;SDS011;7459;53.590;10.062;2022-08-19T04:26:25;26.75;;;12.80;;
14736;SDS011;7459;53.590;10.062;2022-08-19T04:28:56;30.10;;;13.27;;
14736;SDS011;7459;53.590;10.062;2022-08-19T04:31:25;31.98;;;14.20;;
14736;SDS011;7459;53.590;10.062;2022-08-19T04:33:58;31.05;;;14.52;;
14736;SDS011;7459;53.590;10.062;2022-08-19T04:36:28;35.00;;;15.02;;
14736;SDS011;7459;53.590;10.062;2022-08-19T04:38:57;33.47;;;15.85;;
14736;SDS011;7459;53.590;10.062;2022-08-19T04:41:28;35.53;;;14.40;;
14736;SDS011;7459;53.590;10.062;2022-08-19T04:44:12;37.53;;;15.13;;
14736;SDS011;7459;53.590;10.062;2022-08-19T04:46:39;34.33;;;13.82;;
14736;SDS011;7459;53.590;10.062;2022-08-19T04:49:05;34.55;;;14.65;;
14736;SDS011;7459;53.590;10.062;2022-08-19T04:51:33;37.38;;;16.63;;
14736;SDS011;7459;53.590;10.062;2022-08-19T04:54:00;34.43;;;16.23;;
14736;SDS011;7459;53.590;10.062;2022-08-19T04:56:27;37.90;;;17.40;;
14736;SDS011;7459;53.590;10.062;2022-08-19T04:58:54;35.88;;;17.58;;
14736;SDS011;7459;53.590;10.062;2022-08-19T05:01:22;41.20;;;16.48;;
14736;SDS011;7459;53.590;10.062;2022-08-19T05:03:51;41.75;;;17.80;;
14736;SDS011;7459;53.590;10.062;2022-08-19T05:06:18;42.27;;;19.00;;
14736;SDS011;7459;53.590;10.062;2022-08-19T05:08:46;42.97;;;18.00;;
14736;SDS011;7459;53.590;10.062;2022-08-19T05:11:23;43.15;;;18.27;;
14736;SDS011;7459;53.590;10.062;2022-08-19T05:13:51;40.58;;;18.52;;
14736;SDS011;7459;53.590;10.062;2022-08-19T05:16:19;44.13;;;18.30;;
14736;SDS011;7459;53.590;10.062;2022-08-19T05:18:48;41.58;;;17.90;;
14736;SDS011;7459;53.590;10.062;2022-08-19T05:21:33;44.30;;;18.23;;
14736;SDS011;7459;53.590;10.062;2022-08-19T05:24:18;43.25;;;18.48;;
14736;SDS011;7459;53.590;10.062;2022-08-19T05:26:47;44.78;;;19.05;;
14736;SDS011;7459;53.590;10.062;2022-08-19T05:29:17;37.80;;;18.13;;
14736;SDS011;7459;53.590;10.062;2022-08-19T05:31:46;38.85;;;18.60;;
14736;SDS011;7459;53.590;10.062;2022-08-19T05:34:16;43.97;;;18.42;;
14736;SDS011;7459;53.590;10.062;2022-08-19T05:36:47;43.67;;;19.30;;
14736;SDS011;7459;53.590;10.062;2022-08-19T05:39:18;39.47;;;18.75;;
14736;SDS011;7459;53.590;10.062;2022-08-19T05:41:46;38.67;;;20.10;;
14736;SDS011;7459;53.590;10.062;2022-08-19T05:44:21;40.22;;;18.42;;
14736;SDS011;7459;53.590;10.062;2022-08-19T05:46:52;38.35;;;17.92;;
14736;SDS011;7459;53.590;10.062;2022-08-19T05:49:18;38.55;;;16.75;;
14736;SDS011;7459;53.590;10.062;2022-08-19T05:51:46;39.53;;;18.60;;
14736;SDS011;7459;53.590;10.062;2022-08-19T05:54:12;38.43;;;18.30;;
14736;SDS011;7459;53.590;10.062;2022-08-19T05:56:39;38.78;;;17.92;;
14736;SDS011;7459;53.590;10.062;2022-08-19T05:59:06;41.13;;;17.80;;
14736;SDS011;7459;53.590;10.062;2022-08-19T06:01:37;38.83;;;17.27;;
14736;SDS011;7459;53.590;10.062;2022-08-19T06:04:04;36.53;;;17.33;;
14736;SDS011;7459;53.590;10.062;2022-08-19T06:06:30;33.90;;;17.83;;
14736;SDS011;7459;53.590;10.062;2022-08-19T06:08:55;39.33;;;17.58;;
14736;SDS011;7459;53.590;10.062;2022-08-19T06:11:35;39.53;;;16.57;;
14736;SDS011;7459;53.590;10.062;2022-08-19T06:14:12;37.67;;;17.50;;
14736;SDS011;7459;53.590;10.062;2022-08-19T06:16:45;36.42;;;17.55;;
14736;SDS011;7459;53.590;10.062;2022-08-19T06:19:12;34.23;;;17.20;;
14736;SDS011;7459;53.590;10.062;2022-08-19T06:21:42;43.38;;;18.02;;
14736;SDS011;7459;53.590;10.062;2022-08-19T06:24:12;38.83;;;17.08;;
14736;SDS011;7459;53.590;10.062;2022-08-19T06:26:42;35.38;;;17.50;;
14736;SDS011;7459;53.590;10.062;2022-08-19T06:29:11;38.65;;;18.02;;
14736;SDS011;7459;53.590;10.062;2022-08-19T06:31:43;36.83;;;16.40;;
14736;SDS011;7459;53.590;10.062;2022-08-19T06:34:14;36.40;;;17.25;;
14736;SDS011;7459;53.590;10.062;2022-08-19T06:36:42;38.47;;;18.10;;
14736;SDS011;7459;53.590;10.062;2022-08-19T06:39:14;37.60;;;19.27;;
14736;SDS011;7459;53.590;10.062;2022-08-19T06:41:54;38.40;;;18.38;;
14736;SDS011;7459;53.590;10.062;2022-08-19T06:44:23;41.10;;;18.37;;
14736;SDS011;7459;53.590;10.062;2022-08-19T06:46:54;44.15;;;18.13;;
14736;SDS011;7459;53.590;10.062;2022-08-19T06:49:20;41.53;;;18.17;;
14736;SDS011;7459;53.590;10.062;2022-08-19T06:51:48;36.90;;;18.33;;
14736;SDS011;7459;53.590;10.062;2022-08-19T06:54:15;43.65;;;19.42;;
14736;SDS011;7459;53.590;10.062;2022-08-19T06:56:42;45.23;;;20.10;;
14736;SDS011;7459;53.590;10.062;2022-08-19T06:59:11;43.05;;;19.92;;
14736;SDS011;7459;53.590;10.062;2022-08-19T07:01:41;48.35;;;19.52;;
14736;SDS011;7459;53.590;10.062;2022-08-19T07:04:17;45.60;;;19.83;;
14736;SDS011;7459;53.590;10.062;2022-08-19T07:06:50;43.28;;;19.00;;
14736;SDS011;7459;53.590;10.062;2022-08-19T07:09:25;39.03;;;17.17;;
14736;SDS011;7459;53.590;10.062;2022-08-19T07:11:52;43.72;;;18.83;;
14736;SDS011;7459;53.590;10.062;2022-08-19T07:14:21;44.50;;;18.45;;
14736;SDS011;7459;53.590;10.062;2022-08-19T07:16:52;41.10;;;18.42;;
14736;SDS011;7459;53.590;10.062;2022-08-19T07:19:20;40.70;;;18.67;;
14736;SDS011;7459;53.590;10.062;2022-08-19T07:21:50;47.73;;;19.47;;
14736;SDS011;7459;53.590;10.062;2022-08-19T07:24:22;39.40;;;19.67;;
14736;SDS011;7459;53.590;10.062;2022-08-19T07:26:51;47.13;;;19.15;;
14736;SDS011;7459;53.590;10.062;2022-08-19T07:29:18;39.80;;;18.92;;
14736;SDS011;7459;53.590;10.062;2022-08-19T07:31:47;44.72;;;20.10;;
14736;SDS011;7459;53.590;10.062;2022-08-19T07:34:17;40.17;;;18.97;;
14736;SDS011;7459;53.590;10.062;2022-08-19T07:36:44;38.22;;;18.48;;
14736;SDS011;7459;53.590;10.062;2022-08-19T07:39:43;40.03;;;19.23;;
14736;SDS011;7459;53.590;10.062;2022-08-19T07:42:04;42.10;;;18.42;;
14736;SDS011;7459;53.590;10.062;2022-08-19T07:44:33;39.60;;;17.95;;
14736;SDS011;7459;53.590;10.062;2022-08-19T07:46:59;38.37;;;17.90;;
14736;SDS011;7459;53.590;10.062;2022-08-19T07:49:26;41.92;;;19.63;;
14736;SDS011;7459;53.590;10.062;2022-08-19T07:52:00;39.30;;;18.70;;
14736;SDS011;7459;53.590;10.062;2022-08-19T07:54:31;41.72;;;17.55;;
14736;SDS011;7459;53.590;10.062;2022-08-19T07:57:01;40.03;;;17.73;;
14736;SDS011;7459;53.590;10.062;2022-08-19T07:59:28;38.73;;;18.47;;
14736;SDS011;7459;53.590;10.062;2022-08-19T08:01:55;41.83;;;18.90;;
14736;SDS011;7459;53.590;10.062;2022-08-19T08:04:22;42.15;;;17.15;;
14736;SDS011;7459;53.590;10.062;2022-08-19T08:07:06;39.03;;;17.77;;
14736;SDS011;7459;53.590;10.062;2022-08-19T08:09:51;35.47;;;17.00;;
14736;SDS011;7459;53.590;10.062;2022-08-19T08:12:20;36.17;;;17.53;;
14736;SDS011;7459;53.590;10.062;2022-08-19T08:14:53;33.08;;;16.83;;
14736;SDS011;7459;53.590;10.062;2022-08-19T08:17:25;38.47;;;16.33;;
14736;SDS011;7459;53.590;10.062;2022-08-19T08:19:54;35.63;;;15.88;;
14736;SDS011;7459;53.590;10.062;2022-08-19T08:22:21;32.03;;;14.88;;
14736;SDS011;7459;53.590;10.062;2022-08-19T08:25:07;31.57;;;14.53;;
14736;SDS011;7459;53.590;10.062;2022-08-19T08:27:44;26.70;;;13.35;;
14736;SDS011;7459;53.590;10.062;2022-08-19T08:30:15;29.17;;;14.48;;
14736;SDS011;7459;53.590;10.062;2022-08-19T08:32:47;28.65;;;13.73;;
14736;SDS011;7459;53.590;10.062;2022-08-19T08:35:14;28.52;;;14.73;;
14736;SDS011;7459;53.590;10.062;2022-08-19T08:37:49;26.57;;;13.90;;
14736;SDS011;7459;53.590;10.062;2022-08-19T08:44:38;27.05;;;12.73;;
14736;SDS011;7459;53.590;10.062;2022-08-19T08:47:23;27.40;;;12.38;;
14736;SDS011;7459;53.590;10.062;2022-08-19T08:52:33;25.23;;;13.40;;
14736;SDS011;7459;53.590;10.062;2022-08-19T08:55:08;25.40;;;13.25;;
14736;SDS011;7459;53.590;10.062;2022-08-19T09:00:18;25.15;;;12.40;;
14736;SDS011;7459;53.590;10.062;2022-08-19T09:02:56;29.98;;;14.38;;
14736;SDS011;7459;53.590;10.062;2022-08-19T09:05:23;27.23;;;13.23;;
14736;SDS011;7459;53.590;10.062;2022-08-19T09:11:15;26.80;;;12.82;;
14736;SDS011;7459;53.590;10.062;2022-08-19T09:16:48;29.17;;;13.23;;
14736;SDS011;7459;53.590;10.062;2022-08-19T09:19:15;27.83;;;13.00;;
14736;SDS011;7459;53.590;10.062;2022-08-19T09:21:42;27.75;;;12.38;;
14736;SDS011;7459;53.590;10.062;2022-08-19T09:24:08;28.83;;;11.57;;
14736;SDS011;7459;53.590;10.062;2022-08-19T09:26:34;24.05;;;11.65;;
14736;SDS011;7459;53.590;10.062;2022-08-19T09:29:00;26.37;;;11.37;;
14736;SDS011;7459;53.590;10.062;2022-08-19T09:31:29;21.48;;;11.30;;
14736;SDS011;7459;53.590;10.062;2022-08-19T09:33:57;25.80;;;12.43;;
14736;SDS011;7459;53.590;10.062;2022-08-19T09:36:25;24.20;;;11.82;;
14736;SDS011;7459;53.590;10.062;2022-08-19T09:38:54;20.27;;;11.20;;
14736;SDS011;7459;53.590;10.062;2022-08-19T09:41:22;25.45;;;11.82;;
14736;SDS011;7459;53.590;10.062;2022-08-19T09:43:50;23.17;;;11.73;;
14736;SDS011;7459;53.590;10.062;2022-08-19T09:46:20;27.50;;;11.45;;
14736;SDS011;7459;53.590;10.062;2022-08-19T09:48:47;25.98;;;12.02;;
14736;SDS011;7459;53.590;10.062;2022-08-19T09:51:14;19.97;;;9.57;;
14736;SDS011;7459;53.590;10.062;2022-08-19T09:53:46;24.35;;;9.48;;
14736;SDS011;7459;53.590;10.062;2022-08-19T09:56:15;22.73;;;11.27;;
14736;SDS011;7459;53.590;10.062;2022-08-19T09:58:43;23.92;;;12.65;;
14736;SDS011;7459;53.590;10.062;2022-08-19T10:01:09;23.20;;;11.40;;
14736;SDS011;7459;53.590;10.062;2022-08-19T10:03:51;23.23;;;11.00;;
14736;SDS011;7459;53.590;10.062;2022-08-19T10:06:20;21.52;;;11.50;;
14736;SDS011;7459;53.590;10.062;2022-08-19T10:08:48;22.65;;;10.20;;
14736;SDS011;7459;53.590;10.062;2022-08-19T10:11:16;24.55;;;10.80;;
14736;SDS011;7459;53.590;10.062;2022-08-19T10:13:43;28.20;;;11.13;;
14736;SDS011;7459;53.590;10.062;2022-08-19T10:16:20;22.00;;;10.75;;
14736;SDS011;7459;53.590;10.062;2022-08-19T10:18:48;22.08;;;11.25;;
14736;SDS011;7459;53.590;10.062;2022-08-19T10:21:19;21.10;;;11.05;;
14736;SDS011;7459;53.590;10.062;2022-08-19T10:23:49;20.80;;;11.60;;
14736;SDS011;7459;53.590;10.062;2022-08-19T10:26:18;25.73;;;10.70;;
14736;SDS011;7459;53.590;10.062;2022-08-19T10:28:47;20.27;;;11.13;;
14736;SDS011;7459;53.590;10.062;2022-08-19T10:31:21;23.15;;;10.98;;
14736;SDS011;7459;53.590;10.062;2022-08-19T10:33:55;26.63;;;11.05;;
14736;SDS011;7459;53.590;10.062;2022-08-19T10:36:26;25.10;;;11.93;;
14736;SDS011;7459;53.590;10.062;2022-08-19T10:39:00;24.53;;;10.70;;
14736;SDS011;7459;53.590;10.062;2022-08-19T10:41:33;22.45;;;11.60;;
14736;SDS011;7459;53.590;10.062;2022-08-19T10:44:05;25.42;;;12.05;;
14736;SDS011;7459;53.590;10.062;2022-08-19T10:46:34;24.13;;;11.18;;
14736;SDS011;7459;53.590;10.062;2022-08-19T10:49:05;23.45;;;11.80;;
14736;SDS011;7459;53.590;10.062;2022-08-19T10:51:31;27.83;;;12.33;;
14736;SDS011;7459;53.590;10.062;2022-08-19T10:54:16;28.33;;;13.55;;
14736;SDS011;7459;53.590;10.062;2022-08-19T10:56:42;26.30;;;13.27;;
14736;SDS011;7459;53.590;10.062;2022-08-19T11:01:53;28.43;;;13.50;;
14736;SDS011;7459;53.590;10.062;2022-08-19T11:04:24;28.30;;;14.23;;
14736;SDS011;7459;53.590;10.062;2022-08-19T11:06:50;26.27;;;13.15;;
14736;SDS011;7459;53.590;10.062;2022-08-19T11:09:17;28.17;;;13.40;;
14736;SDS011;7459;53.590;10.062;2022-08-19T11:11:45;30.50;;;13.40;;
14736;SDS011;7459;53.590;10.062;2022-08-19T11:14:13;33.63;;;14.63;;
14736;SDS011;7459;53.590;10.062;2022-08-19T11:16:43;27.83;;;13.48;;
14736;SDS011;7459;53.590;10.062;2022-08-19T11:19:09;32.10;;;13.87;;
14736;SDS011;7459;53.590;10.062;2022-08-19T11:21:38;25.40;;;12.85;;
14736;SDS011;7459;53.590;10.062;2022-08-19T11:24:12;26.63;;;13.57;;
14736;SDS011;7459;53.590;10.062;2022-08-19T11:26:45;23.08;;;13.02;;
14736;SDS011;7459;53.590;10.062;2022-08-19T11:29:15;25.90;;;13.55;;
14736;SDS011;7459;53.590;10.062;2022-08-19T11:31:45;21.90;;;11.67;;
14736;SDS011;7459;53.590;10.062;2022-08-19T11:34:18;26.25;;;12.68;;
14736;SDS011;7459;53.590;10.062;2022-08-19T11:36:49;23.13;;;13.00;;
14736;SDS011;7459;53.590;10.062;2022-08-19T11:39:17;19.63;;;12.32;;
14736;SDS011;7459;53.590;10.062;2022-08-19T11:41:46;21.17;;;11.50;;
14736;SDS011;7459;53.590;10.062;2022-08-19T11:44:12;22.67;;;11.70;;
14736;SDS011;7459;53.590;10.062;2022-08-19T11:46:38;21.45;;;12.00;;
14736;SDS011;7459;53.590;10.062;2022-08-19T11:49:06;22.88;;;11.40;;
14736;SDS011;7459;53.590;10.062;2022-08-19T11:51:34;20.45;;;10.93;;
14736;SDS011;7459;53.590;10.062;2022-08-19T11:54:00;18.70;;;10.27;;
14736;SDS011;7459;53.590;10.062;2022-08-19T11:56:26;19.55;;;10.13;;
14736;SDS011;7459;53.590;10.062;2022-08-19T11:58:53;21.45;;;11.45;;
14736;SDS011;7459;53.590;10.062;2022-08-19T12:01:22;20.02;;;10.15;;
14736;SDS011;7459;53.590;10.062;2022-08-19T12:03:51;19.27;;;10.45;;
14736;SDS011;7459;53.590;10.062;2022-08-19T12:06:24;19.27;;;10.33;;
14736;SDS011;7459;53.590;10.062;2022-08-19T12:08:56;20.13;;;10.13;;
14736;SDS011;7459;53.590;10.062;2022-08-19T12:11:26;17.80;;;10.02;;
14736;SDS011;7459;53.590;10.062;2022-08-19T12:13:53;21.42;;;11.27;;
14736;SDS011;7459;53.590;10.062;2022-08-19T12:16:23;16.83;;;9.57;;
14736;SDS011;7459;53.590;10.062;2022-08-19T12:18:52;17.10;;;10.53;;
14736;SDS011;7459;53.590;10.062;2022-08-19T12:21:20;23.50;;;10.25;;
14736;SDS011;7459;53.590;10.062;2022-08-19T12:23:53;16.80;;;10.52;;
14736;SDS011;7459;53.590;10.062;2022-08-19T12:26:20;20.67;;;10.05;;
14736;SDS011;7459;53.590;10.062;2022-08-19T12:28:46;18.20;;;10.70;;
14736;SDS011;7459;53.590;10.062;2022-08-19T12:31:13;19.57;;;10.00;;
14736;SDS011;7459;53.590;10.062;2022-08-19T12:33:40;16.00;;;9.50;;
14736;SDS011;7459;53.590;10.062;2022-08-19T12:36:08;17.77;;;10.27;;
14736;SDS011;7459;53.590;10.062;2022-08-19T12:38:37;17.63;;;9.85;;
14736;SDS011;7459;53.590;10.062;2022-08-19T12:41:03;18.73;;;9.63;;
14736;SDS011;7459;53.590;10.062;2022-08-19T12:43:31;19.47;;;10.13;;
14736;SDS011;7459;53.590;10.062;2022-08-19T12:45:57;16.85;;;9.43;;
14736;SDS011;7459;53.590;10.062;2022-08-19T12:48:24;19.52;;;10.20;;
14736;SDS011;7459;53.590;10.062;2022-08-19T12:50:49;15.50;;;9.88;;
14736;SDS011;7459;53.590;10.062;2022-08-19T12:53:15;17.17;;;10.50;;
14736;SDS011;7459;53.590;10.062;2022-08-19T12:55:41;17.40;;;9.52;;
14736;SDS011;7459;53.590;10.062;2022-08-19T12:58:10;16.33;;;10.10;;
14736;SDS011;7459;53.590;10.062;2022-08-19T13:00:37;19.47;;;11.03;;
14736;SDS011;7459;53.590;10.062;2022-08-19T13:03:03;17.55;;;9.50;;
14736;SDS011;7459;53.590;10.062;2022-08-19T13:05:29;15.20;;;8.95;;
14736;SDS011;7459;53.590;10.062;2022-08-19T13:07:58;17.45;;;9.98;;
14736;SDS011;7459;53.590;10.062;2022-08-19T13:10:27;14.37;;;8.83;;
14736;SDS011;7459;53.590;10.062;2022-08-19T13:12:59;16.58;;;10.02;;
14736;SDS011;7459;53.590;10.062;2022-08-19T13:15:33;14.05;;;8.68;;
14736;SDS011;7459;53.590;10.062;2022-08-19T13:18:01;14.98;;;9.07;;
14736;SDS011;7459;53.590;10.062;2022-08-19T13:20:27;15.17;;;9.50;;
14736;SDS011;7459;53.590;10.062;2022-08-19T13:22:54;14.80;;;8.88;;
14736;SDS011;7459;53.590;10.062;2022-08-19T13:25:20;15.07;;;9.13;;
14736;SDS011;7459;53.590;10.062;2022-08-19T13:27:46;13.48;;;9.15;;
14736;SDS011;7459;53.590;10.062;2022-08-19T13:30:14;14.93;;;9.20;;
14736;SDS011;7459;53.590;10.062;2022-08-19T13:33:00;14.40;;;9.00;;
14736;SDS011;7459;53.590;10.062;2022-08-19T13:35:35;14.82;;;8.93;;
14736;SDS011;7459;53.590;10.062;2022-08-19T13:38:07;15.35;;;8.98;;
14736;SDS011;7459;53.590;10.062;2022-08-19T13:40:34;16.48;;;9.23;;
14736;SDS011;7459;53.590;10.062;2022-08-19T13:43:00;16.13;;;10.40;;
14736;SDS011;7459;53.590;10.062;2022-08-19T13:45:28;14.50;;;9.57;;
14736;SDS011;7459;53.590;10.062;2022-08-19T13:48:00;16.75;;;9.23;;
14736;SDS011;7459;53.590;10.062;2022-08-19T13:50:33;15.68;;;9.02;;
14736;SDS011;7459;53.590;10.062;2022-08-19T13:53:06;15.85;;;10.18;;
14736;SDS011;7459;53.590;10.062;2022-08-19T13:55:34;15.73;;;9.27;;
14736;SDS011;7459;53.590;10.062;2022-08-19T13:58:05;14.60;;;9.10;;
14736;SDS011;7459;53.590;10.062;2022-08-19T14:00:32;13.32;;;8.05;;
14736;SDS011;7459;53.590;10.062;2022-08-19T14:03:03;16.67;;;9.63;;
14736;SDS011;7459;53.590;10.062;2022-08-19T14:05:30;14.32;;;9.10;;
14736;SDS011;7459;53.590;10.062;2022-08-19T14:07:57;15.03;;;9.10;;
14736;SDS011;7459;53.590;10.062;2022-08-19T14:10:23;13.80;;;9.25;;
14736;SDS011;7459;53.590;10.062;2022-08-19T14:12:59;12.73;;;8.35;;
14736;SDS011;7459;53.590;10.062;2022-08-19T14:15:27;15.00;;;8.82;;
14736;SDS011;7459;53.590;10.062;2022-08-19T14:17:54;13.82;;;8.05;;
14736;SDS011;7459;53.590;10.062;2022-08-19T14:20:21;14.13;;;8.23;;
14736;SDS011;7459;53.590;10.062;2022-08-19T14:22:48;12.95;;;8.35;;
14736;SDS011;7459;53.590;10.062;2022-08-19T14:25:16;15.70;;;9.98;;
14736;SDS011;7459;53.590;10.062;2022-08-19T14:27:45;15.82;;;8.90;;
14736;SDS011;7459;53.590;10.062;2022-08-19T14:30:13;15.57;;;9.45;;
14736;SDS011;7459;53.590;10.062;2022-08-19T14:32:45;16.93;;;10.57;;
14736;SDS011;7459;53.590;10.062;2022-08-19T14:35:12;17.73;;;10.63;;
14736;SDS011;7459;53.590;10.062;2022-08-19T14:37:40;14.75;;;9.40;;
14736;SDS011;7459;53.590;10.062;2022-08-19T14:40:07;17.23;;;9.93;;
14736;SDS011;7459;53.590;10.062;2022-08-19T14:42:34;16.30;;;9.63;;
14736;SDS011;7459;53.590;10.062;2022-08-19T14:45:00;16.10;;;10.25;;
14736;SDS011;7459;53.590;10.062;2022-08-19T14:47:26;17.05;;;9.57;;
14736;SDS011;7459;53.590;10.062;2022-08-19T14:49:52;14.43;;;9.70;;
14736;SDS011;7459;53.590;10.062;2022-08-19T14:52:18;14.83;;;8.60;;
14736;SDS011;7459;53.590;10.062;2022-08-19T14:54:44;12.77;;;8.65;;